Time;durP1;ratioP1;P1;durP2;ratioP2;P2;SDS_P1;SDS_P2;PMS_P1;PMS_P2;Temp;Humidity;BMP_temperature;BMP_pressure;BME280_temperature;BME280_humidity;BME280_pressure;Samples;Min_cycle;Max_cycle;Signal;HPM_P1;HPM_P2
2021/04/17 00:00:00;;;;;;;14.23;10.38;;;;;;;5.80;90.47;100788.31;1623064;84;26286;-74
2021/04/17 00:02:27;;;;;;;15.53;10.05;;;;;;;5.78;90.43;100781.47;1636902;84;27561;-75
2021/04/17 00:04:54;;;;;;;14.70;9.65;;;;;;;5.75;90.47;100782.59;1657914;85;26560;-76
2021/04/17 00:07:22;;;;;;;16.48;10.55;;;;;;;5.78;90.62;100782.31;1691852;84;26137;-77
2021/04/17 00:09:49;;;;;;;13.35;10.40;;;;;;;5.76;90.46;100782.11;1618610;85;25948;-76
2021/04/17 00:12:20;;;;;;;18.48;11.30;;;;;;;5.73;90.40;100783.25;1650845;84;25877;-75
2021/04/17 00:14:50;;;;;;;15.28;10.55;;;;;;;5.72;90.48;100786.91;1658656;84;27094;-76
2021/04/17 00:17:20;;;;;;;15.78;10.85;;;;;;;5.71;90.56;100787.88;1689322;84;25875;-76
2021/04/17 00:19:52;;;;;;;15.85;10.98;;;;;;;5.72;90.64;100786.06;1616168;84;25839;-76
2021/04/17 00:22:19;;;;;;;15.48;10.70;;;;;;;5.72;90.72;100785.58;1666248;84;26123;-76
2021/04/17 00:24:47;;;;;;;18.75;11.00;;;;;;;5.72;90.61;100776.28;1686837;84;26434;-76
2021/04/17 00:27:14;;;;;;;17.87;11.03;;;;;;;5.72;90.55;100770.96;1603587;85;28498;-76
2021/04/17 00:29:42;;;;;;;16.70;11.48;;;;;;;5.73;90.60;100771.80;1637469;84;26096;-76
2021/04/17 00:32:09;;;;;;;20.48;11.20;;;;;;;5.74;90.59;100768.14;1662967;84;25800;-76
2021/04/17 00:34:37;;;;;;;18.52;12.10;;;;;;;5.75;90.57;100761.34;1694841;84;25889;-76
2021/04/17 00:37:05;;;;;;;21.23;11.83;;;;;;;5.76;90.54;100763.51;1613008;84;26251;-75
2021/04/17 00:39:32;;;;;;;17.12;11.80;;;;;;;5.74;90.45;100770.31;1668410;84;26445;-77
2021/04/17 00:41:59;;;;;;;20.10;11.50;;;;;;;5.76;90.47;100766.16;1664146;84;25850;-75
2021/04/17 00:44:28;;;;;;;17.57;11.05;;;;;;;5.78;90.52;100769.02;1710233;83;26460;-76
2021/04/17 00:46:55;;;;;;;22.58;12.23;;;;;;;5.76;90.38;100763.02;1642410;83;25897;-75
2021/04/17 00:49:22;;;;;;;14.75;10.43;;;;;;;5.74;90.27;100765.48;1658700;83;25905;-76
2021/04/17 00:51:50;;;;;;;19.57;11.08;;;;;;;5.72;90.30;100756.83;1676408;83;27352;-76
2021/04/17 00:54:18;;;;;;;18.40;11.70;;;;;;;5.70;90.25;100765.45;1710978;83;25776;-76
2021/04/17 00:56:45;;;;;;;19.05;11.65;;;;;;;5.71;90.30;100768.47;1638881;83;25865;-76
2021/04/17 00:59:13;;;;;;;20.68;11.38;;;;;;;5.68;90.32;100765.61;1656932;83;26962;-76
2021/04/17 01:01:40;;;;;;;19.25;11.70;;;;;;;5.69;90.29;100766.45;1654686;83;26582;-76
2021/04/17 01:04:23;;;;;;;17.75;11.57;;;;;;;5.66;90.27;100760.09;1710565;83;27546;-77
2021/04/17 01:07:04;;;;;;;15.60;11.12;;;;;;;5.65;90.40;100758.41;1676260;83;25984;-75
2021/04/17 01:09:48;;;;;;;17.35;11.12;;;;;;;5.67;90.52;100759.09;1680581;83;25401;-76
2021/04/17 01:12:21;;;;;;;20.85;10.88;;;;;;;5.67;90.45;100758.61;1676875;83;25871;-76
2021/04/17 01:14:52;;;;;;;19.27;11.70;;;;;;;5.64;90.45;100761.59;1706387;83;25745;-76
2021/04/17 01:17:21;;;;;;;19.10;11.85;;;;;;;5.65;90.50;100769.05;1674314;83;27568;-77
2021/04/17 01:20:20;;;;;;;16.95;11.75;;;;;;;5.64;90.47;100761.59;1679207;83;26423;-75
2021/04/17 01:23:11;;;;;;;15.40;10.90;;;;;;;5.62;90.47;100760.91;1675990;83;26227;-76
2021/04/17 01:26:04;;;;;;;13.93;11.03;;;;;;;5.59;90.54;100769.16;1624280;86;26982;-75
2021/04/17 01:28:35;;;;;;;22.55;11.38;;;;;;;5.57;90.61;100765.83;1676031;83;26086;-76
2021/04/17 01:31:06;;;;;;;16.17;12.13;;;;;;;5.56;90.85;100765.47;1701867;81;27541;-76
2021/04/17 01:33:36;;;;;;;;;;;;;;;5.55;90.73;100758.98;1722295;81;25888;-75
2021/04/17 01:36:06;;;;;;;22.48;12.03;;;;;;;5.57;90.84;100755.69;1702325;83;25780;-77
2021/04/17 01:38:41;;;;;;;17.07;12.58;;;;;;;5.55;90.98;100754.52;1699784;81;26439;-75
2021/04/17 01:41:16;;;;;;;22.87;13.03;;;;;;;5.54;90.86;100760.80;1696846;81;26011;-77
2021/04/17 01:43:47;;;;;;;22.50;13.10;;;;;;;5.54;90.87;100758.66;1725921;82;27580;-75
2021/04/17 01:46:18;;;;;;;18.27;12.05;;;;;;;5.54;90.91;100754.16;1676641;82;25786;-76
2021/04/17 01:48:50;;;;;;;21.87;12.80;;;;;;;5.58;91.02;100755.52;1683437;83;25821;-76
2021/04/17 01:51:18;;;;;;;18.27;12.43;;;;;;;5.56;90.82;100756.69;1668410;83;26426;-76
2021/04/17 01:53:48;;;;;;;23.40;12.80;;;;;;;5.57;90.88;100760.51;1685437;82;26084;-75
2021/04/17 01:56:18;;;;;;;19.67;12.60;;;;;;;5.59;90.85;100761.20;1712449;82;27534;-76
2021/04/17 01:58:48;;;;;;;31.15;11.60;;;;;;;5.60;90.89;100760.22;1685140;83;25943;-76
2021/04/17 02:01:21;;;;;;;20.72;12.58;;;;;;;5.57;90.83;100763.17;1696327;82;25873;-76
2021/04/17 02:03:48;;;;;;;21.73;12.78;;;;;;;5.56;90.87;100763.33;1680378;82;25719;-77
2021/04/17 02:06:16;;;;;;;16.85;13.03;;;;;;;5.55;90.93;100758.98;1685663;82;26470;-75
2021/04/17 02:08:43;;;;;;;23.12;13.25;;;;;;;5.54;90.97;100754.16;1686675;83;27425;-76
2021/04/17 02:11:10;;;;;;;23.60;15.15;;;;;;;5.55;90.99;100750.53;1659475;83;26025;-75
2021/04/17 02:13:41;;;;;;;20.80;13.60;;;;;;;5.56;91.04;100748.72;1670536;84;26021;-77
2021/04/17 02:16:19;;;;;;;20.15;13.53;;;;;;;5.58;91.19;100750.20;1684406;83;26311;-76
2021/04/17 02:18:59;;;;;;;21.10;12.23;;;;;;;5.58;91.01;100755.52;1708840;82;25944;-75
2021/04/17 02:21:39;;;;;;;21.07;14.15;;;;;;;5.60;91.06;100754.06;1684494;83;28449;-75
2021/04/17 02:24:08;;;;;;;22.13;13.65;;;;;;;5.60;91.00;100760.70;1703578;82;25841;-75
2021/04/17 02:26:37;;;;;;;24.43;13.90;;;;;;;5.62;91.07;100761.39;1687114;83;26444;-76
2021/04/17 02:29:07;;;;;;;19.95;12.00;;;;;;;5.63;91.01;100763.89;1648523;83;26491;-75
2021/04/17 02:31:35;;;;;;;19.75;12.88;;;;;;;5.63;91.01;100757.73;1681648;81;25692;-77
2021/04/17 02:34:03;;;;;;;20.82;14.23;;;;;;;5.61;91.02;100757.89;1666884;83;27560;-76
2021/04/17 02:36:31;;;;;;;20.65;12.68;;;;;;;5.60;90.99;100757.56;1705784;83;26172;-76
2021/04/17 02:38:58;;;;;;;19.17;12.93;;;;;;;5.60;91.01;100756.72;1701815;81;25851;-77
2021/04/17 02:41:26;;;;;;;19.92;13.05;;;;;;;5.63;91.13;100756.41;1684226;81;26592;-75
2021/04/17 02:43:53;;;;;;;18.87;13.55;;;;;;;5.61;91.05;100757.89;1678466;81;25796;-76
2021/04/17 02:46:20;;;;;;;18.60;13.28;;;;;;;5.60;91.09;100750.92;1715640;81;27542;-76
2021/04/17 02:48:48;;;;;;;19.07;13.32;;;;;;;5.60;91.13;100753.58;1718276;81;25864;-75
2021/04/17 02:51:15;;;;;;;18.85;13.20;;;;;;;5.62;91.17;100751.60;1717336;81;26271;-76
2021/04/17 02:53:42;;;;;;;17.35;12.45;;;;;;;5.65;91.16;100753.94;1693980;81;25696;-76
2021/04/17 02:56:10;;;;;;;20.48;13.60;;;;;;;5.66;91.12;100750.31;1714546;81;26400;-77
2021/04/17 02:58:37;;;;;;;20.97;15.03;;;;;;;5.68;91.12;100752.32;1726046;81;27404;-75
2021/04/17 03:01:04;;;;;;;19.98;13.62;;;;;;;5.69;91.03;100757.16;1707757;81;25829;-76
2021/04/17 03:03:31;;;;;;;21.12;12.68;;;;;;;5.69;91.00;100749.99;1727971;81;25900;-76
2021/04/17 03:05:59;;;;;;;23.85;14.40;;;;;;;5.70;90.98;100756.98;1716664;81;26393;-76
2021/04/17 03:08:26;;;;;;;19.98;13.68;;;;;;;5.72;91.06;100752.36;1717180;81;25950;-76
2021/04/17 03:10:53;;;;;;;21.48;13.05;;;;;;;5.76;91.09;100752.39;1691385;81;27601;-76
2021/04/17 03:13:21;;;;;;;20.43;12.95;;;;;;;5.76;90.97;100751.06;1702296;82;25818;-76
2021/04/17 03:15:48;;;;;;;21.52;13.72;;;;;;;5.75;90.88;100757.87;1690660;82;25396;-75
2021/04/17 03:18:15;;;;;;;20.75;12.25;;;;;;;5.75;90.92;100753.36;1738398;81;27053;-76
2021/04/17 03:20:43;;;;;;;19.52;13.10;;;;;;;5.77;91.02;100756.73;1693555;81;26406;-76
2021/04/17 03:23:10;;;;;;;27.93;14.65;;;;;;;5.73;90.92;100754.02;1714510;82;27637;-75
2021/04/17 03:25:37;;;;;;;19.95;13.45;;;;;;;5.75;91.09;100760.01;1719329;81;25753;-76
2021/04/17 03:28:05;;;;;;;22.07;13.38;;;;;;;5.76;91.09;100755.05;1716587;81;26454;-76
2021/04/17 03:30:32;;;;;;;20.27;12.55;;;;;;;5.77;91.00;100763.38;1692939;81;25764;-75
2021/04/17 03:33:01;;;;;;;17.62;12.55;;;;;;;5.78;91.07;100756.22;1747635;81;26433;-77
2021/04/17 03:35:30;;;;;;;16.30;11.73;;;;;;;5.80;91.13;100761.73;1719222;81;28594;-76
2021/04/17 03:38:03;;;;;;;21.30;13.62;;;;;;;5.80;90.98;100763.06;1715653;81;25942;-75
2021/04/17 03:40:31;;;;;;;18.98;12.37;;;;;;;5.80;90.98;100757.73;1688047;81;26545;-76
2021/04/17 03:43:00;;;;;;;16.50;11.97;;;;;;;5.84;91.04;100759.63;1695131;81;25851;-75
2021/04/17 03:45:29;;;;;;;27.10;13.53;;;;;;;5.84;90.98;100761.80;1671139;83;26053;-76
2021/04/17 03:47:56;;;;;;;23.57;13.65;;;;;;;5.82;90.89;100765.07;1667692;83;27337;-76
2021/04/17 03:50:24;;;;;;;16.17;11.63;;;;;;;5.85;91.01;100761.31;1647408;83;25827;-75
2021/04/17 03:52:52;;;;;;;18.35;13.03;;;;;;;5.85;91.01;100763.97;1652374;85;25445;-76
2021/04/17 03:55:19;;;;;;;19.30;12.70;;;;;;;5.85;90.97;100768.80;1645240;85;26439;-76
2021/04/17 03:57:46;;;;;;;20.70;12.35;;;;;;;5.85;90.92;100775.44;1666604;84;25816;-76
2021/04/17 04:00:20;;;;;;;18.70;13.28;;;;;;;5.90;91.13;100774.47;1647788;84;27572;-77
2021/04/17 04:02:48;;;;;;;22.05;13.35;;;;;;;5.95;91.11;100770.88;1669887;84;26037;-76
2021/04/17 04:05:16;;;;;;;19.30;12.20;;;;;;;5.99;91.04;100771.39;1663455;84;26625;-76
2021/04/17 04:07:44;;;;;;;17.25;11.55;;;;;;;5.98;90.89;100771.91;1638723;84;26420;-76
2021/04/17 04:10:13;;;;;;;17.45;12.00;;;;;;;5.96;90.94;100777.03;1634821;84;26019;-76
2021/04/17 04:12:42;;;;;;;17.52;12.47;;;;;;;5.92;90.79;100775.16;1661397;84;27558;-76
2021/04/17 04:15:12;;;;;;;18.90;12.55;;;;;;;5.93;90.83;100782.64;1656260;84;26540;-76
2021/04/17 04:17:41;;;;;;;12.70;10.27;;;;;;;5.92;90.81;100778.33;1653710;84;25989;-76
2021/04/17 04:20:10;;;;;;;17.77;11.48;;;;;;;5.86;90.75;100773.63;1658639;84;26454;-76
2021/04/17 04:22:37;;;;;;;19.62;11.35;;;;;;;5.89;90.80;100778.62;1686840;84;25823;-76
2021/04/17 04:25:06;;;;;;;18.07;12.15;;;;;;;5.90;90.90;100781.63;1663665;84;27371;-76
2021/04/17 04:27:35;;;;;;;18.92;12.85;;;;;;;5.91;90.96;100781.47;1636683;84;26134;-77
2021/04/17 04:30:06;;;;;;;23.47;12.00;;;;;;;5.91;91.01;100784.62;1641921;84;26480;-76
2021/04/17 04:32:33;;;;;;;;;;;;;;;5.90;90.94;100785.63;1648318;85;25852;-77
2021/04/17 04:35:00;;;;;;;19.48;12.18;;;;;;;5.93;91.09;100787.95;1675398;84;26692;-75
2021/04/17 04:37:27;;;;;;;18.77;12.13;;;;;;;5.94;91.14;100784.33;1632522;85;27610;-76
2021/04/17 04:39:55;;;;;;;18.98;11.97;;;;;;;5.98;91.10;100791.01;1632768;85;25970;-75
2021/04/17 04:42:22;;;;;;;20.12;12.05;;;;;;;6.00;91.05;100794.34;1658745;84;25808;-76
2021/04/17 04:44:50;;;;;;;17.45;11.22;;;;;;;6.01;91.00;100799.50;1709057;82;26001;-76
2021/04/17 04:47:18;;;;;;;17.60;11.40;;;;;;;6.04;91.06;100795.70;1653800;81;26087;-75
2021/04/17 04:49:45;;;;;;;18.67;11.85;;;;;;;6.05;91.02;100795.55;1702891;81;27705;-76
2021/04/17 04:52:12;;;;;;;17.60;11.90;;;;;;;6.06;91.01;100796.39;1658006;84;25736;-76
2021/04/17 04:54:40;;;;;;;19.45;10.88;;;;;;;6.07;90.92;100795.41;1691165;83;25855;-76
2021/04/17 04:57:08;;;;;;;19.10;11.75;;;;;;;6.06;90.91;100805.21;1660748;84;25874;-76
2021/04/17 04:59:35;;;;;;;19.52;12.30;;;;;;;6.08;90.94;100802.39;1650392;84;26152;-76
2021/04/17 05:02:07;;;;;;;18.48;11.88;;;;;;;6.07;90.96;100808.20;1699824;82;28311;-76
2021/04/17 05:04:35;;;;;;;15.50;11.38;;;;;;;6.09;91.03;100809.39;1709011;82;25831;-76
2021/04/17 05:07:04;;;;;;;16.97;11.28;;;;;;;6.11;91.11;100811.41;1631192;84;25781;-76
2021/04/17 05:09:41;;;;;;;19.70;12.45;;;;;;;6.15;91.22;100804.79;1637009;84;25977;-76
2021/04/17 05:12:12;;;;;;;20.17;12.45;;;;;;;6.21;91.25;100811.66;1655076;85;26058;-76
2021/04/17 05:14:39;;;;;;;19.98;12.78;;;;;;;6.21;91.07;100813.48;1686572;84;27560;-77
2021/04/17 05:17:11;;;;;;;17.73;11.43;;;;;;;6.22;91.07;100805.33;1650904;83;25607;-76
2021/04/17 05:19:41;;;;;;;24.32;12.28;;;;;;;6.25;91.11;100810.84;1670075;84;25997;-76
2021/04/17 05:22:10;;;;;;;16.30;11.93;;;;;;;6.29;91.13;100814.05;1686857;82;26411;-75
2021/04/17 05:24:39;;;;;;;16.82;12.45;;;;;;;6.31;91.08;100814.22;1689752;82;25890;-75
2021/04/17 05:27:15;;;;;;;19.48;11.38;;;;;;;6.37;91.18;100809.63;1823095;77;25841;-76
2021/04/17 05:29:44;;;;;;;24.12;12.23;;;;;;;6.36;91.17;100815.09;1774549;79;25779;-76
2021/04/17 05:32:12;;;;;;;18.07;10.95;;;;;;;6.38;91.23;100811.28;1752922;80;28148;-77
2021/04/17 05:34:40;;;;;;;17.50;12.00;;;;;;;6.39;91.10;100814.80;1728350;80;25885;-76
2021/04/17 05:37:07;;;;;;;22.02;12.47;;;;;;;6.39;91.09;100810.80;1753939;80;25911;-75
2021/04/17 05:39:36;;;;;;;18.20;12.45;;;;;;;6.40;91.09;100813.78;1786065;80;25769;-77
2021/04/17 05:42:06;;;;;;;20.15;11.57;;;;;;;6.44;91.37;100811.99;1735607;80;26231;-75
2021/04/17 05:44:33;;;;;;;22.50;12.23;;;;;;;6.54;91.70;100815.42;1757800;81;27400;-76
2021/04/17 05:47:01;;;;;;;18.92;12.33;;;;;;;6.66;91.92;100817.31;1738032;79;25829;-76
2021/04/17 05:49:28;;;;;;;20.92;11.50;;;;;;;6.75;91.60;100824.36;1773403;80;26355;-75
2021/04/17 05:51:56;;;;;;;19.35;11.88;;;;;;;6.81;91.45;100821.91;1724845;81;25962;-75
2021/04/17 05:54:24;;;;;;;21.90;12.23;;;;;;;6.91;91.33;100817.80;1725102;80;25789;-76
2021/04/17 05:56:51;;;;;;;20.23;12.25;;;;;;;6.85;90.73;100822.42;1737034;80;28143;-76
2021/04/17 05:59:19;;;;;;;21.05;13.28;;;;;;;6.84;90.67;100819.44;1756449;80;26158;-76
2021/04/17 06:01:46;;;;;;;30.05;12.85;;;;;;;6.84;90.71;100822.09;1735080;80;26426;-76
2021/04/17 06:04:14;;;;;;;26.82;12.47;;;;;;;6.82;90.64;100815.58;1761782;80;25870;-75
2021/04/17 06:06:43;;;;;;;25.00;12.18;;;;;;;6.79;90.48;100820.39;1744384;81;26048;-76
2021/04/17 06:09:12;;;;;;;26.57;12.98;;;;;;;6.79;90.58;100820.39;1774182;80;27576;-76
2021/04/17 06:11:41;;;;;;;26.62;12.15;;;;;;;6.75;90.74;100826.54;1728188;80;26103;-75
2021/04/17 06:14:09;;;;;;;25.43;11.95;;;;;;;6.73;90.88;100828.52;1753844;80;25802;-75
2021/04/17 06:16:38;;;;;;;22.93;11.83;;;;;;;6.72;90.85;100833.98;1740473;80;25836;-74
2021/04/17 06:19:07;;;;;;;21.40;12.93;;;;;;;6.67;90.81;100832.30;1754017;80;26720;-76
2021/04/17 06:21:36;;;;;;;24.43;13.30;;;;;;;6.67;91.02;100830.45;1704568;80;28424;-75
2021/04/17 06:24:07;;;;;;;23.92;12.82;;;;;;;6.70;91.14;100836.81;1730232;80;25868;-76
2021/04/17 06:26:38;;;;;;;26.70;13.65;;;;;;;6.74;91.23;100835.50;1756925;80;25853;-75
2021/04/17 06:29:05;;;;;;;25.92;12.73;;;;;;;6.72;91.10;100835.31;1742970;81;26214;-75
2021/04/17 06:31:35;;;;;;;25.68;13.38;;;;;;;6.72;91.31;100845.96;1730038;80;25804;-75
2021/04/17 06:34:04;;;;;;;32.17;13.95;;;;;;;6.72;91.39;100844.14;1730251;80;28490;-76
2021/04/17 06:36:33;;;;;;;31.93;13.53;;;;;;;6.76;91.45;100847.31;1750336;80;26258;-75
2021/04/17 06:39:01;;;;;;;29.30;14.73;;;;;;;6.75;91.50;100843.00;1753241;80;25799;-74
2021/04/17 06:41:33;;;;;;;30.10;13.68;;;;;;;6.77;91.62;100848.52;1722227;80;25973;-75
2021/04/17 06:44:05;;;;;;;30.90;14.43;;;;;;;6.78;91.62;100847.50;1727746;81;26424;-75
2021/04/17 06:46:34;;;;;;;30.20;16.15;;;;;;;6.80;91.71;100846.04;1752350;81;27408;-76
2021/04/17 06:49:04;;;;;;;28.50;14.53;;;;;;;6.80;91.76;100850.84;1746014;80;26179;-76
2021/04/17 06:51:33;;;;;;;31.37;16.45;;;;;;;6.84;91.85;100851.39;1722966;80;25949;-76
2021/04/17 06:54:11;;;;;;;32.60;15.10;;;;;;;6.85;92.00;100849.89;1761195;80;25813;-76
2021/04/17 06:56:39;;;;;;;37.85;15.03;;;;;;;6.85;91.96;100850.37;1748422;80;26278;-76
2021/04/17 06:59:07;;;;;;;36.03;15.98;;;;;;;6.86;92.02;100851.55;1751971;80;27581;-76
2021/04/17 07:01:38;;;;;;;31.70;15.93;;;;;;;6.89;92.20;100850.40;1729057;80;25786;-76
2021/04/17 07:04:06;;;;;;;42.50;17.40;;;;;;;6.91;92.30;100856.41;1750281;80;25786;-75
2021/04/17 07:06:34;;;;;;;39.88;17.17;;;;;;;6.90;92.20;100855.59;1746772;80;25716;-77
2021/04/17 07:09:03;;;;;;;42.95;16.05;;;;;;;6.92;92.37;100857.60;1777341;80;25794;-75
2021/04/17 07:11:31;;;;;;;22.90;13.45;;;;;;;6.95;92.45;100856.42;1722757;80;28359;-75
2021/04/17 07:14:13;;;;;;;34.33;16.85;;;;;;;6.97;92.41;100853.14;1728476;80;26576;-75
2021/04/17 07:17:04;;;;;;;44.77;17.92;;;;;;;7.01;92.46;100853.16;1750765;80;25843;-76
2021/04/17 07:20:00;;;;;;;41.10;18.10;;;;;;;7.06;92.54;100856.16;1772191;80;26016;-75
2021/04/17 07:22:39;;;;;;;38.23;17.60;;;;;;;7.15;92.67;100854.37;1752848;80;25801;-76
2021/04/17 07:25:12;;;;;;;37.78;17.45;;;;;;;7.19;92.55;100858.39;1722615;80;27335;-75
2021/04/17 07:27:50;;;;;;;39.50;17.62;;;;;;;7.21;92.59;100852.41;1740356;81;25400;-76
2021/04/17 07:30:23;;;;;;;38.40;16.90;;;;;;;7.24;92.85;100862.77;1757560;81;25746;-75
2021/04/17 07:33:14;;;;;;;38.28;17.25;;;;;;;7.24;92.88;100862.27;1756169;81;26147;-75
2021/04/17 07:35:47;;;;;;;44.25;18.40;;;;;;;7.24;92.86;100862.27;1740081;81;26038;-76
2021/04/17 07:38:19;;;;;;;34.60;19.37;;;;;;;7.26;92.93;100864.28;1714592;81;27351;-75
2021/04/17 07:41:09;;;;;;;42.53;18.57;;;;;;;7.30;93.05;100863.45;1750272;81;25728;-76
2021/04/17 07:43:59;;;;;;;55.60;19.37;;;;;;;7.35;93.09;100865.16;1738968;81;25795;-76
2021/04/17 07:46:42;;;;;;;43.33;19.00;;;;;;;7.39;93.14;100869.16;1740368;81;25715;-74
2021/04/17 07:49:22;;;;;;;46.55;18.67;;;;;;;7.40;93.17;100866.85;1732048;81;25731;-76
2021/04/17 07:52:12;;;;;;;48.45;20.90;;;;;;;7.44;93.22;100874.86;1725389;83;27543;-76
2021/04/17 07:55:05;;;;;;;31.45;18.52;;;;;;;7.44;93.25;100873.01;1713131;83;25931;-76
2021/04/17 07:57:49;;;;;;;45.40;19.27;;;;;;;7.45;93.27;100876.02;1687773;83;25852;-76
2021/04/17 08:00:20;;;;;;;50.38;20.70;;;;;;;7.46;93.36;100874.20;1686707;83;25753;-76
2021/04/17 08:02:51;;;;;;;39.42;20.55;;;;;;;7.47;93.44;100873.19;1719521;83;25753;-77
2021/04/17 08:05:20;;;;;;;44.45;20.50;;;;;;;7.50;93.51;100879.55;1648371;83;28529;-76
2021/04/17 08:07:49;;;;;;;42.58;20.57;;;;;;;7.53;93.69;100869.39;1667709;83;25999;-76
2021/04/17 08:10:18;;;;;;;40.73;20.57;;;;;;;7.57;93.81;100875.25;1665943;84;25896;-76
2021/04/17 08:12:48;;;;;;;46.48;20.30;;;;;;;7.61;93.79;100877.41;1693562;83;26114;-77
2021/04/17 08:15:19;;;;;;;50.52;23.42;;;;;;;7.65;93.86;100878.78;1669151;83;25636;-75
2021/04/17 08:17:50;;;;;;;48.13;23.22;;;;;;;7.66;93.75;100880.44;1673450;83;27559;-76
2021/04/17 08:20:19;;;;;;;40.33;20.97;;;;;;;7.69;93.79;100884.63;1698008;83;26604;-77
2021/04/17 08:22:50;;;;;;;47.98;22.85;;;;;;;7.73;93.84;100884.63;1722653;83;25840;-76
2021/04/17 08:25:21;;;;;;;;;;;;;;;7.76;93.88;100886.47;1729688;82;25792;-76
2021/04/17 08:27:51;;;;;;;42.03;21.25;;;;;;;7.77;93.89;100880.15;1713961;82;25778;-76
2021/04/17 08:30:25;;;;;;;43.80;23.87;;;;;;;7.79;94.05;100879.48;1699537;83;27964;-76
2021/04/17 08:32:54;;;;;;;50.78;24.10;;;;;;;7.86;94.13;100880.17;1671910;82;25793;-75
2021/04/17 08:35:25;;;;;;;45.43;21.87;;;;;;;7.91;94.11;100880.53;1714150;82;25655;-76
2021/04/17 08:38:03;;;;;;;40.90;22.58;;;;;;;7.97;94.12;100876.71;1669527;84;25654;-75
2021/04/17 08:40:44;;;;;;;38.70;21.95;;;;;;;8.02;94.25;100877.56;1704669;83;25957;-76
2021/04/17 08:43:19;;;;;;;50.45;24.92;;;;;;;8.08;94.33;100881.75;1713951;83;27504;-76
2021/04/17 08:46:15;;;;;;;48.33;23.25;;;;;;;8.13;94.14;100883.40;1715181;82;25582;-75
2021/04/17 08:48:58;;;;;;;44.48;22.32;;;;;;;8.17;94.12;100882.06;1713915;83;25749;-76
2021/04/17 08:51:32;;;;;;;47.75;24.50;;;;;;;8.19;94.07;100884.07;1712126;82;25940;-77
2021/04/17 08:54:09;;;;;;;48.42;23.42;;;;;;;8.21;93.94;100887.41;1710174;82;25839;-76
2021/04/17 08:56:59;;;;;;;41.05;23.27;;;;;;;8.22;93.98;100882.91;1715193;82;27538;-77
2021/04/17 08:59:37;;;;;;;49.30;24.52;;;;;;;8.27;94.16;100886.81;1676806;83;25878;-76
2021/04/17 09:02:13;;;;;;;39.58;23.12;;;;;;;8.29;93.95;100882.14;1661843;83;26472;-75
2021/04/17 09:05:10;;;;;;;40.50;23.35;;;;;;;8.32;94.13;100888.95;1698099;82;25864;-75
2021/04/17 09:10:31;;;;;;;48.55;26.50;;;;;;;8.42;94.07;100887.83;1832130;77;25652;-75
2021/04/17 09:13:20;;;;;;;42.03;24.63;;;;;;;8.45;94.39;100879.47;1795745;78;26489;-76
2021/04/17 09:16:06;;;;;;;45.90;24.32;;;;;;;8.51;94.15;100885.47;1770424;80;27544;-75
2021/04/17 09:18:38;;;;;;;45.20;25.17;;;;;;;8.54;94.08;100885.16;1780524;78;25416;-74
2021/04/17 09:21:16;;;;;;;44.18;24.07;;;;;;;8.62;94.12;100890.17;1740849;80;26160;-76
2021/04/17 09:23:50;;;;;;;49.65;26.45;;;;;;;8.66;94.02;100884.83;1774512;80;25774;-75
2021/04/17 09:26:39;;;;;;;45.95;24.72;;;;;;;8.72;94.19;100890.33;1669330;81;26192;-77
2021/04/17 09:29:20;;;;;;;39.03;24.77;;;;;;;8.76;94.15;100894.33;1679578;84;27659;-74
2021/04/17 09:31:47;;;;;;;43.73;24.02;;;;;;;8.78;93.71;100895.00;1695485;81;25744;-74
2021/04/17 09:34:16;;;;;;;48.40;26.62;;;;;;;8.80;93.65;100898.33;1718052;82;25858;-75
2021/04/17 09:36:49;;;;;;;44.10;24.07;;;;;;;8.83;93.80;100897.17;1667087;83;26793;-77
2021/04/17 09:39:30;;;;;;;36.45;21.42;;;;;;;8.87;93.68;100899.83;1728531;82;26514;-76
2021/04/17 09:42:04;;;;;;;36.35;23.35;;;;;;;8.87;93.26;100899.83;1699483;82;27577;-75
2021/04/17 09:44:46;;;;;;;41.65;24.45;;;;;;;8.84;93.11;100902.83;1728981;82;25798;-76
2021/04/17 09:47:16;;;;;;;42.70;24.67;;;;;;;8.88;93.36;100904.16;1697399;81;25826;-76
2021/04/17 09:49:49;;;;;;;36.77;21.95;;;;;;;8.93;93.37;100908.50;1706489;82;25915;-74
2021/04/17 09:52:19;;;;;;;38.63;22.85;;;;;;;8.93;93.28;100909.34;1732192;82;25756;-76
2021/04/17 09:55:02;;;;;;;41.95;21.93;;;;;;;8.95;93.43;100902.00;1726944;82;27544;-77
2021/04/17 09:57:30;;;;;;;38.63;22.95;;;;;;;8.96;93.13;100908.98;1679534;81;25992;-78
2021/04/17 10:00:04;;;;;;;38.13;23.42;;;;;;;8.99;93.02;100914.01;1707718;82;25775;-75
2021/04/17 10:02:48;;;;;;;40.33;23.15;;;;;;;9.01;93.05;100910.66;1707797;82;25836;-74
2021/04/17 10:05:20;;;;;;;40.30;22.93;;;;;;;9.01;93.02;100911.16;1725701;81;25788;-77
2021/04/17 10:07:50;;;;;;;41.10;24.92;;;;;;;9.05;93.04;100919.16;1694829;82;27555;-76
2021/04/17 10:10:17;;;;;;;39.17;24.43;;;;;;;9.05;92.93;100917.83;1683469;83;26427;-74
2021/04/17 10:12:55;;;;;;;44.40;27.37;;;;;;;9.09;93.03;100918.66;1715380;82;25851;-75
2021/04/17 10:15:28;;;;;;;43.08;24.23;;;;;;;9.15;93.12;100913.16;1733302;82;25757;-75
2021/04/17 10:18:01;;;;;;;36.98;22.87;;;;;;;9.19;92.89;100920.67;1682749;82;26075;-75
2021/04/17 10:20:29;;;;;;;39.38;24.07;;;;;;;9.24;92.86;100920.98;1703179;82;27641;-75
2021/04/17 10:23:00;;;;;;;52.48;29.75;;;;;;;9.27;92.84;100921.98;1708688;82;25929;-75
2021/04/17 10:25:45;;;;;;;52.43;32.95;;;;;;;9.31;92.79;100919.80;1730727;82;25859;-75
2021/04/17 10:28:16;;;;;;;52.35;33.18;;;;;;;9.32;92.60;100918.80;1686426;82;25821;-75
2021/04/17 10:30:49;;;;;;;59.58;32.98;;;;;;;9.33;92.40;100918.63;1657942;83;25770;-75
2021/04/17 10:33:23;;;;;;;54.10;34.20;;;;;;;9.37;92.47;100924.98;1697912;83;28287;-75
2021/04/17 10:35:54;;;;;;;49.88;28.98;;;;;;;9.38;92.44;100922.63;1737860;81;25882;-75
2021/04/17 10:38:26;;;;;;;;;;;;;;;9.39;92.29;100918.43;1668366;82;25734;-75
2021/04/17 10:41:01;;;;;;;47.08;27.62;;;;;;;9.40;92.22;100921.45;1670536;82;25953;-75
2021/04/17 10:43:30;;;;;;;54.20;28.87;;;;;;;9.39;92.22;100926.45;1678955;83;25880;-75
2021/04/17 10:46:03;;;;;;;51.30;30.70;;;;;;;9.40;92.20;100921.45;1681555;82;27542;-75
2021/04/17 10:48:46;;;;;;;53.55;29.80;;;;;;;9.43;92.06;100925.63;1654657;83;25893;-75
2021/04/17 10:51:17;;;;;;;60.05;34.10;;;;;;;9.45;92.02;100928.47;1743575;80;25955;-75
2021/04/17 10:53:48;;;;;;;48.70;28.50;;;;;;;9.50;91.96;100934.61;1765120;80;25908;-75
2021/04/17 10:56:19;;;;;;;52.83;28.75;;;;;;;9.50;91.71;100937.28;1718861;80;25912;-75
2021/04/17 10:58:56;;;;;;;48.38;30.25;;;;;;;9.49;91.65;100936.47;1701559;83;28520;-75
2021/04/17 11:01:27;;;;;;;57.73;31.45;;;;;;;9.50;91.71;100939.95;1714295;82;26293;-75
2021/04/17 11:03:58;;;;;;;52.13;31.07;;;;;;;9.53;91.87;100932.94;1730292;82;25812;-74
2021/04/17 11:06:30;;;;;;;52.58;32.15;;;;;;;9.57;91.96;100935.10;1676266;82;25830;-75
2021/04/17 11:09:08;;;;;;;53.70;30.48;;;;;;;9.61;92.02;100929.73;1670420;83;25943;-75
2021/04/17 11:11:36;;;;;;;57.78;33.50;;;;;;;9.63;91.98;100929.55;1695106;83;28432;-75
2021/04/17 11:14:06;;;;;;;50.05;29.25;;;;;;;9.67;92.11;100929.04;1719773;81;26365;-75
2021/04/17 11:16:46;;;;;;;50.78;29.70;;;;;;;9.71;92.12;100929.02;1701566;81;26434;-75
2021/04/17 11:19:29;;;;;;;59.73;37.45;;;;;;;9.72;91.95;100933.38;1712123;81;25763;-75
2021/04/17 11:22:24;;;;;;;52.98;33.20;;;;;;;9.74;91.96;100931.86;1701878;81;25501;-75
2021/04/17 11:25:02;;;;;;;49.65;30.82;;;;;;;9.73;91.63;100933.69;1721865;81;27307;-75
2021/04/17 11:27:30;;;;;;;48.80;31.00;;;;;;;9.75;91.85;100939.70;1730330;81;25815;-75
2021/04/17 11:29:58;;;;;;;50.28;30.65;;;;;;;9.78;91.92;100941.20;1704959;82;25858;-75
2021/04/17 11:32:28;;;;;;;55.78;32.98;;;;;;;9.81;91.91;100944.39;1728673;81;25853;-77
2021/04/17 11:34:56;;;;;;;52.83;32.10;;;;;;;9.85;91.81;100939.02;1725950;82;25917;-77
2021/04/17 11:37:24;;;;;;;52.78;30.77;;;;;;;9.87;91.63;100941.02;1704545;81;27532;-77
2021/04/17 11:39:52;;;;;;;50.85;30.88;;;;;;;9.90;91.73;100950.02;1705521;81;25792;-77
2021/04/17 11:42:19;;;;;;;53.20;28.83;;;;;;;9.93;91.73;100942.14;1735091;81;25818;-76